Mound Valley, KS (67354)

12:08 PM CDT on July 04, 2015 (GMT -0500)
Tri-City | | Change Station
CLOSE
Current Station
Airport
Location: Parsons,
Elevation: 899 ft
Nearby Weather Stations

Elev 899 ft 37.33 °N, 95.50 °W | Updated 16 minutes ago

Clear
Clear
83 °F
Feels Like 86 °F
N
4
Wind Variable Wind from Variable

Today
High -- | Low -- °F
--% Chance of Precip.
Yesterday
High -- | Low -- °F
Precip. -- in
6:06 AM 8:45 PM
Waning Gibbous, 91% visible
Pressure 29.98 in
Visibility 10.0 miles
Clouds Scattered Clouds 3100 ft
Heat Index 86 °F
Dew Point 69 °F
Humidity 63%
Rainfall 0.00 in
Snow Depth Not available.
UV 9 out of 12
Pollen 3.00 out of 12
Air Quality Not available.
Flu Activity Not available.
METAR KPPF 041652Z AUTO VRB03KT 10SM SCT031 28/21 A3001 RMK AO2 SLP152 T02830206

More Conditions Fewer Conditions

Pressure 29.98 in
Visibility 10.0 miles
Clouds Scattered Clouds 3100 ft
Heat Index 86 °F
Dew Point 69 °F
Humidity 63%
Rainfall 0.00 in
Snow Depth Not available.
UV 9 out of 12
Pollen 3.00 out of 12
Air Quality Not available.
Flu Activity Not available.
METAR KPPF 041652Z AUTO VRB03KT 10SM SCT031 28/21 A3001 RMK AO2 SLP152 T02830206

More Conditions Fewer Conditions

10-Day Weather Forecast

×

Almanac

Astronomy

Jul. 04, 2015 Rise Set
Actual Time
Civil Twilight
Nautical Twilight
Astronomical Twilight
Moon
Length of Visible Light
Length of Day
Tomorrow will be .
, % of the Moon is Illuminated

Today's Extremes

State Highs State Lows

Community

WunderPhotos

Upload Photos

1,835,003 photos uploaded!

WunderBlogs® & News

Nearby

Air Quality

  Air Quality AQ Index Pollutant
Not available.

Snow Depth

Station Depth Elevation

Earthquake Activity

City Distance Mag. Time & Date
Minimum magnitude displayed is 2.5.

Coastal Water Temperatures

Place Temperature

Stations

Nearby Weather Stations

Station Location Temp. Windchill Dew Point Humidity Wind Precip. Elev Updated Type